Terminal Aerodrome Forecast
Issued by NWS

Home | Current Version | Previous Version | Text Only | Print | Product List | Glossary On
Versions: 1 2 3 4 5 6 7 8 9 10 11 12 13 14 15 16 17
000
FTUS43 KTOP 270350 AAA
TAFFOE
TAF AMD
KFOE 270350Z 2704/2724 08005KT 6SM -SHRA VCTS BKN060CB
      TEMPO 2704/2706 2SM TSRA
     FM270900 36006KT P6SM VCTS BKN020CB
     FM271200 36007KT P6SM BKN010
     FM272000 02011KT P6SM BKN035=

USA.gov is the U.S. government's official web portal to all federal, state and local government web resources and services.